createdAt,value
2023-02-22T00:02:25.401Z,9.90
2023-02-22T00:04:54.058Z,9.92
2023-02-22T00:07:23.928Z,9.92
2023-02-22T00:09:51.959Z,10.00
2023-02-22T00:12:20.753Z,9.90
2023-02-22T00:14:48.767Z,9.90
2023-02-22T00:17:16.789Z,9.90
2023-02-22T00:19:44.770Z,9.90
2023-02-22T00:22:13.334Z,9.90
2023-02-22T00:24:41.589Z,9.96
2023-02-22T00:27:09.695Z,9.90
2023-02-22T00:29:38.830Z,9.90
2023-02-22T00:32:07.182Z,9.90
2023-02-22T00:34:35.346Z,9.88
2023-02-22T00:37:04.370Z,9.90
2023-02-22T00:39:32.752Z,9.82
2023-02-22T00:42:00.806Z,9.80
2023-02-22T00:44:30.596Z,9.80
2023-02-22T00:46:58.752Z,9.80
2023-02-22T00:49:26.835Z,9.76
2023-02-22T00:51:54.919Z,9.78
2023-02-22T00:54:23.033Z,9.76
2023-02-22T00:56:51.125Z,9.70
2023-02-22T00:59:19.302Z,9.78
2023-02-22T01:01:47.781Z,9.80
2023-02-22T01:04:15.998Z,9.78
2023-02-22T01:06:43.981Z,9.72
2023-02-22T01:09:12.099Z,9.80
2023-02-22T01:11:42.568Z,9.70
2023-02-22T01:14:11.851Z,9.70
2023-02-22T01:16:39.940Z,9.68
2023-02-22T01:19:08.027Z,9.60
2023-02-22T01:21:36.031Z,9.62
2023-02-22T01:24:04.178Z,9.60
2023-02-22T01:26:32.205Z,9.60
2023-02-22T01:29:00.608Z,9.70
2023-02-22T01:31:28.670Z,9.70
2023-02-22T01:33:56.680Z,9.70
2023-02-22T01:36:24.722Z,9.66
2023-02-22T01:38:53.409Z,9.60
2023-02-22T01:41:22.703Z,9.60
2023-02-22T01:43:50.797Z,9.60
2023-02-22T01:46:25.963Z,9.60
2023-02-22T01:48:55.517Z,9.60
2023-02-22T01:51:28.567Z,9.50
2023-02-22T01:54:04.141Z,9.50
2023-02-22T01:56:33.778Z,9.50
2023-02-22T01:59:06.859Z,9.50
2023-02-22T02:01:35.917Z,9.56
2023-02-22T02:04:06.156Z,9.60
2023-02-22T02:06:34.167Z,9.60
2023-02-22T02:09:15.020Z,9.60
2023-02-22T02:11:43.154Z,9.70
2023-02-22T02:14:11.626Z,9.72
2023-02-22T02:16:44.793Z,9.86
2023-02-22T02:19:54.965Z,9.90
2023-02-22T02:22:38.654Z,9.82
2023-02-22T02:25:31.006Z,9.90
2023-02-22T02:28:20.290Z,9.90
2023-02-22T02:30:58.236Z,9.78
2023-02-22T02:33:31.886Z,9.80
2023-02-22T02:36:08.658Z,9.80
2023-02-22T02:38:45.739Z,9.70
2023-02-22T02:41:25.591Z,9.70
2023-02-22T02:44:06.260Z,9.68
2023-02-22T02:46:47.185Z,9.60
2023-02-22T02:49:18.280Z,9.50
2023-02-22T02:51:51.134Z,9.50
2023-02-22T02:54:19.206Z,9.58
2023-02-22T02:56:47.635Z,9.58
2023-02-22T02:59:33.808Z,9.50
2023-02-22T03:02:20.265Z,9.48
2023-02-22T03:05:07.478Z,9.46
2023-02-22T03:07:43.278Z,9.50
2023-02-22T03:10:23.515Z,9.50
2023-02-22T03:13:15.488Z,9.40
2023-02-22T03:15:57.511Z,9.30
2023-02-22T03:18:29.383Z,9.40
2023-02-22T03:20:57.656Z,9.32
2023-02-22T03:24:01.475Z,9.26
2023-02-22T03:26:36.088Z,9.28
2023-02-22T03:29:05.279Z,9.30
2023-02-22T03:31:37.562Z,9.22
2023-02-22T03:34:14.493Z,9.20
2023-02-22T03:36:52.704Z,9.30
2023-02-22T03:39:20.821Z,9.30
2023-02-22T03:41:51.519Z,9.24
2023-02-22T03:44:24.685Z,9.22
2023-02-22T03:46:54.210Z,9.22
2023-02-22T03:49:37.557Z,9.20
2023-02-22T03:52:07.449Z,9.40
2023-02-22T03:54:36.208Z,9.44
2023-02-22T03:57:14.644Z,9.50
2023-02-22T03:59:43.748Z,9.40
2023-02-22T04:02:11.847Z,9.30
2023-02-22T04:04:39.981Z,9.20
2023-02-22T04:07:08.183Z,9.18
2023-02-22T04:09:36.263Z,9.10
2023-02-22T04:12:05.290Z,9.10
2023-02-22T04:14:42.797Z,9.04
2023-02-22T04:17:10.932Z,9.00
2023-02-22T04:19:39.158Z,8.98
2023-02-22T04:22:07.318Z,8.90
2023-02-22T04:24:36.236Z,8.88
2023-02-22T04:27:04.302Z,8.80
2023-02-22T04:29:34.720Z,8.76
2023-02-22T04:32:03.871Z,8.70
2023-02-22T04:34:32.106Z,8.70
2023-02-22T04:37:00.342Z,8.64
2023-02-22T04:39:28.835Z,8.60
2023-02-22T04:41:57.092Z,8.50
2023-02-22T04:44:26.239Z,8.40
2023-02-22T04:46:54.410Z,8.40
2023-02-22T04:49:22.637Z,8.30
2023-02-22T04:51:52.354Z,8.30
2023-02-22T04:54:24.352Z,8.30
2023-02-22T04:56:52.683Z,8.30
2023-02-22T04:59:21.490Z,8.30
2023-02-22T05:01:55.185Z,8.32
2023-02-22T05:04:23.319Z,8.36
2023-02-22T05:06:53.285Z,8.30
2023-02-22T05:09:22.864Z,8.38
2023-02-22T05:11:50.997Z,8.40
2023-02-22T05:14:19.123Z,8.40
2023-02-22T05:16:49.950Z,8.40
2023-02-22T05:19:18.770Z,8.40
2023-02-22T05:21:46.767Z,8.40
2023-02-22T05:24:14.980Z,8.40
2023-02-22T05:26:44.036Z,8.40
2023-02-22T05:29:12.263Z,8.40
2023-02-22T05:31:42.190Z,8.40
2023-02-22T05:34:10.406Z,8.30
2023-02-22T05:36:38.450Z,8.28
2023-02-22T05:39:06.748Z,8.28
2023-02-22T05:41:34.969Z,8.30
2023-02-22T05:44:03.315Z,8.20
2023-02-22T05:46:31.602Z,8.16
2023-02-22T05:48:59.915Z,8.20
2023-02-22T05:51:28.187Z,8.10
2023-02-22T05:53:56.516Z,8.10
2023-02-22T05:56:26.052Z,8.10
2023-02-22T05:58:54.435Z,8.10
2023-02-22T06:01:22.462Z,8.10
2023-02-22T06:03:50.827Z,8.10
2023-02-22T06:06:22.263Z,8.10
2023-02-22T06:08:50.651Z,8.10
2023-02-22T06:11:19.978Z,8.20
2023-02-22T06:13:52.164Z,8.20
2023-02-22T06:16:22.307Z,8.20
2023-02-22T06:18:50.405Z,8.20
2023-02-22T06:21:18.926Z,8.20
2023-02-22T06:23:47.365Z,8.20
2023-02-22T06:26:18.931Z,8.20
2023-02-22T06:28:47.272Z,8.20
2023-02-22T06:31:15.539Z,8.30
2023-02-22T06:33:43.867Z,8.30
2023-02-22T06:36:11.879Z,8.40
2023-02-22T06:38:39.979Z,8.32
2023-02-22T06:41:09.077Z,8.40
2023-02-22T06:43:37.342Z,8.40
2023-02-22T06:46:05.906Z,8.40
2023-02-22T06:48:34.008Z,8.40
2023-02-22T06:51:02.197Z,8.40
2023-02-22T06:53:30.330Z,8.40
2023-02-22T06:55:58.440Z,8.50
2023-02-22T06:58:27.306Z,8.50
2023-02-22T07:00:55.579Z,8.54
2023-02-22T07:03:23.690Z,8.50
2023-02-22T07:05:51.709Z,8.60
2023-02-22T07:08:19.840Z,8.64
2023-02-22T07:10:50.661Z,8.60
2023-02-22T07:13:19.432Z,8.60
2023-02-22T07:15:47.541Z,8.62
2023-02-22T07:18:16.414Z,8.60
2023-02-22T07:20:44.526Z,8.60
2023-02-22T07:23:16.251Z,8.86
2023-02-22T07:25:45.231Z,8.80
2023-02-22T07:28:13.311Z,8.80
2023-02-22T07:30:41.462Z,8.80
2023-02-22T07:33:11.320Z,8.80
2023-02-22T07:35:43.868Z,8.84
2023-02-22T07:38:11.902Z,9.08
2023-02-22T07:40:40.272Z,9.20
2023-02-22T07:43:28.101Z,9.20
2023-02-22T07:45:56.936Z,9.24
2023-02-22T07:48:26.204Z,9.40
2023-02-22T07:50:54.409Z,9.50
2023-02-22T07:53:28.863Z,9.50
2023-02-22T07:55:58.188Z,9.40
2023-02-22T07:58:28.146Z,9.50
2023-02-22T08:00:56.298Z,9.60
2023-02-22T08:03:25.528Z,9.54
2023-02-22T08:05:55.914Z,9.40
2023-02-22T08:08:24.104Z,9.50
2023-02-22T08:10:52.365Z,9.60
2023-02-22T08:13:21.030Z,9.70
2023-02-22T08:15:51.180Z,9.90
2023-02-22T08:18:19.645Z,9.78
2023-02-22T08:20:48.552Z,9.70
2023-02-22T08:23:16.842Z,10.00
2023-02-22T08:25:45.005Z,10.16
2023-02-22T08:28:15.286Z,10.30
2023-02-22T08:30:43.997Z,10.24
2023-02-22T08:33:14.695Z,10.40
2023-02-22T08:35:42.769Z,10.60
2023-02-22T08:38:37.936Z,10.60
2023-02-22T08:41:07.122Z,10.70
2023-02-22T08:43:35.383Z,10.72
2023-02-22T08:46:03.584Z,10.86
2023-02-22T08:48:31.639Z,11.00
2023-02-22T08:50:59.753Z,11.36
2023-02-22T08:53:27.765Z,11.76
2023-02-22T08:55:55.853Z,11.90
2023-02-22T08:58:23.992Z,11.84
2023-02-22T09:00:52.238Z,11.88
2023-02-22T09:03:20.251Z,12.10
2023-02-22T09:05:48.522Z,12.10
2023-02-22T09:08:17.562Z,12.22
2023-02-22T09:10:45.604Z,12.30
2023-02-22T09:13:13.920Z,12.20
2023-02-22T09:15:42.669Z,12.20
2023-02-22T09:18:12.609Z,12.30
2023-02-22T09:20:42.202Z,12.52
2023-02-22T09:23:10.511Z,12.80
2023-02-22T09:25:41.068Z,12.62
2023-02-22T09:28:09.372Z,12.82
2023-02-22T09:30:37.804Z,12.90
2023-02-22T09:33:10.871Z,13.02
2023-02-22T09:35:42.705Z,12.96
2023-02-22T09:38:11.668Z,12.84
2023-02-22T09:40:45.265Z,13.04
2023-02-22T09:43:16.952Z,12.76
2023-02-22T09:45:56.981Z,12.70
2023-02-22T09:48:25.462Z,12.70
2023-02-22T09:50:54.163Z,12.74
2023-02-22T09:53:31.399Z,12.64
2023-02-22T09:56:11.168Z,12.66
2023-02-22T09:58:45.977Z,12.80
2023-02-22T10:01:27.460Z,12.90
2023-02-22T10:04:05.252Z,12.98
2023-02-22T10:06:34.254Z,13.10
2023-02-22T10:09:07.883Z,13.30
2023-02-22T10:12:02.444Z,13.50
2023-02-22T10:14:50.189Z,13.80
2023-02-22T10:17:39.900Z,14.00
2023-02-22T10:20:16.726Z,14.82
2023-02-22T10:23:16.061Z,15.34
2023-02-22T10:25:45.192Z,15.70
2023-02-22T10:28:14.902Z,16.76
2023-02-22T10:31:02.650Z,17.30
2023-02-22T10:33:42.299Z,18.08
2023-02-22T10:36:19.186Z,18.86
2023-02-22T10:39:00.542Z,18.94
2023-02-22T10:41:30.981Z,19.36
2023-02-22T10:44:02.080Z,20.14
2023-02-22T10:46:31.266Z,20.32
2023-02-22T10:49:05.045Z,20.78
2023-02-22T10:51:33.312Z,21.02
2023-02-22T10:54:24.942Z,21.08
2023-02-22T10:56:55.711Z,21.34
2023-02-22T10:59:42.571Z,21.22
2023-02-22T11:02:18.538Z,21.40
2023-02-22T11:04:47.878Z,21.72
2023-02-22T11:07:20.455Z,22.10
2023-02-22T11:09:53.250Z,22.50
2023-02-22T11:12:34.703Z,22.96
2023-02-22T11:15:19.047Z,22.76
2023-02-22T11:17:47.897Z,22.80
2023-02-22T11:20:39.568Z,23.24
2023-02-22T11:23:08.427Z,23.34
2023-02-22T11:25:38.537Z,23.34
2023-02-22T11:28:16.624Z,23.98
2023-02-22T11:30:44.848Z,23.82
2023-02-22T11:33:16.286Z,23.70
2023-02-22T11:35:54.150Z,24.54
2023-02-22T11:38:32.653Z,24.32
2023-02-22T11:41:26.801Z,24.10
2023-02-22T11:43:55.008Z,23.34
2023-02-22T11:46:29.262Z,23.44
2023-02-22T11:49:07.167Z,24.24
2023-02-22T11:51:45.229Z,24.54
2023-02-22T11:54:29.081Z,24.64
2023-02-22T11:57:07.390Z,24.58
2023-02-22T11:59:40.804Z,24.78
2023-02-22T12:02:24.703Z,24.64
2023-02-22T12:05:08.256Z,24.84
2023-02-22T12:07:46.109Z,25.08
2023-02-22T12:10:18.525Z,25.12
2023-02-22T12:13:03.965Z,25.16
2023-02-22T12:15:36.385Z,25.28
2023-02-22T12:18:10.373Z,24.72
2023-02-22T12:20:40.808Z,24.14
2023-02-22T12:23:20.932Z,24.00
2023-02-22T12:26:05.670Z,23.46
2023-02-22T12:28:47.868Z,22.90
2023-02-22T12:31:29.817Z,22.38
2023-02-22T12:34:16.430Z,22.82
2023-02-22T12:36:50.477Z,23.46
2023-02-22T12:39:25.559Z,23.70
2023-02-22T12:41:55.333Z,22.64
2023-02-22T12:44:26.627Z,22.00
2023-02-22T12:46:56.916Z,20.62
2023-02-22T12:49:38.855Z,19.26
2023-02-22T12:52:36.223Z,18.14
2023-02-22T12:55:23.788Z,17.06
2023-02-22T12:57:57.327Z,16.34
2023-02-22T13:01:02.150Z,15.86
2023-02-22T13:03:37.042Z,15.40
2023-02-22T13:06:28.200Z,15.20
2023-02-22T13:09:08.845Z,15.00
2023-02-22T13:11:47.550Z,14.88
2023-02-22T13:14:37.407Z,14.44
2023-02-22T13:17:27.097Z,14.66
2023-02-22T13:19:57.945Z,14.90
2023-02-22T13:22:40.467Z,16.16
2023-02-22T13:25:15.259Z,16.14
2023-02-22T13:28:03.347Z,15.58
2023-02-22T13:30:38.399Z,14.82
2023-02-22T13:33:21.515Z,14.30
2023-02-22T13:35:56.973Z,14.20
2023-02-22T13:38:42.908Z,14.04
2023-02-22T13:41:28.010Z,14.76
2023-02-22T13:44:10.704Z,16.38
2023-02-22T13:46:45.715Z,16.78
2023-02-22T13:49:41.591Z,17.02
2023-02-22T13:52:14.861Z,17.20
2023-02-22T13:54:51.475Z,17.40
2023-02-22T13:57:22.501Z,17.50
2023-02-22T14:00:23.455Z,17.70
2023-02-22T14:03:09.194Z,17.66
2023-02-22T14:05:43.224Z,17.42
2023-02-22T14:08:14.452Z,17.40
2023-02-22T14:10:48.671Z,17.40
2023-02-22T14:13:22.652Z,17.30
2023-02-22T14:16:00.184Z,17.18
2023-02-22T14:18:45.106Z,17.00
2023-02-22T14:21:18.185Z,16.66
2023-02-22T14:23:52.739Z,16.54
2023-02-22T14:26:26.059Z,16.42
2023-02-22T14:28:58.268Z,15.88
2023-02-22T14:31:50.904Z,15.78
2023-02-22T14:34:22.356Z,15.74
2023-02-22T14:37:19.608Z,15.54
2023-02-22T14:40:20.122Z,15.30
2023-02-22T14:42:50.079Z,15.16
2023-02-22T14:45:29.846Z,14.90
2023-02-22T22:48:18.047Z,4.00
2023-02-22T22:50:46.753Z,4.00
2023-02-22T22:53:16.649Z,3.98
2023-02-22T22:55:44.717Z,3.90
2023-02-22T22:58:13.498Z,3.98
2023-02-22T23:00:42.187Z,3.90
2023-02-22T23:03:11.920Z,3.90
2023-02-22T23:05:42.492Z,3.90
2023-02-22T23:08:13.267Z,3.88
2023-02-22T23:10:41.644Z,3.90
2023-02-22T23:13:10.634Z,3.80
2023-02-22T23:15:43.300Z,3.80
2023-02-22T23:18:12.730Z,3.80
2023-02-22T23:20:41.749Z,3.80
2023-02-22T23:23:14.819Z,3.80
2023-02-22T23:25:42.878Z,3.78
2023-02-22T23:28:14.818Z,3.70
2023-02-22T23:30:43.130Z,3.70
2023-02-22T23:33:11.337Z,3.70
2023-02-22T23:35:39.678Z,3.70
2023-02-22T23:38:08.345Z,3.70
2023-02-22T23:40:37.760Z,3.70
2023-02-22T23:43:07.789Z,3.70
2023-02-22T23:45:38.828Z,3.66
2023-02-22T23:48:07.014Z,3.66
2023-02-22T23:50:36.605Z,3.60
2023-02-22T23:53:06.138Z,3.58
2023-02-22T23:55:39.211Z,3.50
2023-02-22T23:58:07.349Z,3.50
